EBOS

Ostend-Bruges International Airport

Ostend, Belgium
TAF EBOS 251720Z 2518/2624 26018G30KT 9999 SCT028 PROB40 TEMPO 2518/2522 4000 SHRA BECMG 2617/2619 22007KT
Issued Valid From Valid To
Apr-25 @ 17:20 UTC
(42 minutes ago)
Apr-25 @ 18:00 UTC
(2 minutes ago)
Apr-27 @ 00:00 UTC
(-1 days ago)
Apr-25 @ 18:00 to Apr-26 @ 17:00
TAF EBOS 251720Z 2518/2624 26018G30KT 9999 SCT028
Wind Visibility Clouds
260° at 18 knots
 Gusting to 30 knots
10,000+ meters
  • Scattered at 2,800' AGL
Temporary  (Probability 40%) Apr-25 @ 18:00 to Apr-25 @ 22:00
PROB40 TEMPO 2518/2522 4000 SHRA
Visibility Conditions
4,007 meters
  • Rain
Becoming Apr-26 @ 17:00 to Apr-27 @ 00:00
BECMG 2617/2619 22007KT
Wind Visibility Clouds
220° at 7 knots 10,000+ meters
  • Scattered at 2,800' AGL
TAF EBOS 251720Z 2518/2624 26018G30KT 9999 SCT028 PROB40 TEMPO 2518/2522 4000 SHRA BECMG 2617/2619 22007KT
Issued Apr-25 @ 17:20 UTC
(42 minutes ago)
Valid From Apr-25 @ 18:00 UTC
(2 minutes ago)
Valid To Apr-27 @ 00:00 UTC
(-1 days ago)
Apr-25 @ 18:00 - Apr-26 @ 17:00
Wind Visibility
260° at 18 knots
 Gusting to 30 knots
10,000+ meters
Clouds
  • Scattered at 2,800' AGL
Probability 40% Temporary Apr-25 @ 18:00 - Apr-25 @ 22:00
Conditions
  • Rain
Becoming Apr-26 @ 17:00 - Apr-27 @ 00:00
Wind Visibility
220° at 7 knots 10,000+ meters
Clouds
  • Scattered at 2,800' AGL